sensor_id;sensor_type;location;lat;lon;timestamp;temperature;humidity
68842;SHT35;55849;48.482;2.332;2023-07-24T00:00:26;23.48;62.35
68842;SHT35;55849;48.482;2.332;2023-07-24T00:03:28;23.48;63.37
68842;SHT35;55849;48.482;2.332;2023-07-24T00:06:29;23.46;63.50
68842;SHT35;55849;48.482;2.332;2023-07-24T00:09:31;23.46;63.52
68842;SHT35;55849;48.482;2.332;2023-07-24T00:12:33;23.40;63.86
68842;SHT35;55849;48.482;2.332;2023-07-24T00:15:38;23.38;63.89
68842;SHT35;55849;48.482;2.332;2023-07-24T00:18:39;23.36;63.89
68842;SHT35;55849;48.482;2.332;2023-07-24T00:21:42;23.36;63.63
68842;SHT35;55849;48.482;2.332;2023-07-24T00:24:43;23.31;63.96
68842;SHT35;55849;48.482;2.332;2023-07-24T00:27:45;23.28;64.20
68842;SHT35;55849;48.482;2.332;2023-07-24T00:30:48;23.30;64.25
68842;SHT35;55849;48.482;2.332;2023-07-24T00:33:49;23.24;63.90
68842;SHT35;55849;48.482;2.332;2023-07-24T00:36:51;23.21;63.84
68842;SHT35;55849;48.482;2.332;2023-07-24T00:39:52;23.23;63.69
68842;SHT35;55849;48.482;2.332;2023-07-24T00:42:54;23.16;63.75
68842;SHT35;55849;48.482;2.332;2023-07-24T00:45:57;23.13;63.01
68842;SHT35;55849;48.482;2.332;2023-07-24T00:49:00;23.09;63.45
68842;SHT35;55849;48.482;2.332;2023-07-24T00:52:02;23.07;63.39
68842;SHT35;55849;48.482;2.332;2023-07-24T00:55:05;23.05;63.49
68842;SHT35;55849;48.482;2.332;2023-07-24T00:58:10;23.03;63.82
68842;SHT35;55849;48.482;2.332;2023-07-24T01:01:14;23.02;63.75
68842;SHT35;55849;48.482;2.332;2023-07-24T01:04:16;22.99;63.94
68842;SHT35;55849;48.482;2.332;2023-07-24T01:07:20;22.99;63.87
68842;SHT35;55849;48.482;2.332;2023-07-24T01:10:22;23.00;63.92
68842;SHT35;55849;48.482;2.332;2023-07-24T01:13:25;22.95;64.09
68842;SHT35;55849;48.482;2.332;2023-07-24T01:16:36;22.95;63.65
68842;SHT35;55849;48.482;2.332;2023-07-24T01:19:41;22.92;63.84
68842;SHT35;55849;48.482;2.332;2023-07-24T01:22:52;22.91;63.77
68842;SHT35;55849;48.482;2.332;2023-07-24T01:26:01;22.89;63.90
68842;SHT35;55849;48.482;2.332;2023-07-24T01:29:03;22.88;63.94
68842;SHT35;55849;48.482;2.332;2023-07-24T01:32:05;22.86;63.80
68842;SHT35;55849;48.482;2.332;2023-07-24T01:35:07;22.85;63.58
68842;SHT35;55849;48.482;2.332;2023-07-24T01:38:09;22.82;63.83
68842;SHT35;55849;48.482;2.332;2023-07-24T01:41:12;22.82;63.74
68842;SHT35;55849;48.482;2.332;2023-07-24T01:44:14;22.78;63.59
68842;SHT35;55849;48.482;2.332;2023-07-24T01:47:15;22.76;63.60
68842;SHT35;55849;48.482;2.332;2023-07-24T01:50:17;22.76;63.58
68842;SHT35;55849;48.482;2.332;2023-07-24T01:53:19;22.76;63.64
68842;SHT35;55849;48.482;2.332;2023-07-24T01:56:22;22.76;63.22
68842;SHT35;55849;48.482;2.332;2023-07-24T01:59:23;22.71;62.72
68842;SHT35;55849;48.482;2.332;2023-07-24T02:02:25;22.69;62.72
68842;SHT35;55849;48.482;2.332;2023-07-24T02:05:26;22.67;61.93
68842;SHT35;55849;48.482;2.332;2023-07-24T02:08:28;22.64;61.95
68842;SHT35;55849;48.482;2.332;2023-07-24T02:11:32;22.60;61.86
68842;SHT35;55849;48.482;2.332;2023-07-24T02:14:34;22.62;61.64
68842;SHT35;55849;48.482;2.332;2023-07-24T02:17:35;22.60;61.66
68842;SHT35;55849;48.482;2.332;2023-07-24T02:20:37;22.57;61.40
68842;SHT35;55849;48.482;2.332;2023-07-24T02:23:39;22.58;61.30
68842;SHT35;55849;48.482;2.332;2023-07-24T02:26:42;22.58;61.48
68842;SHT35;55849;48.482;2.332;2023-07-24T02:29:43;22.54;61.05
68842;SHT35;55849;48.482;2.332;2023-07-24T02:32:45;22.53;61.35
68842;SHT35;55849;48.482;2.332;2023-07-24T02:35:46;22.54;62.55
68842;SHT35;55849;48.482;2.332;2023-07-24T02:38:48;22.54;63.20
68842;SHT35;55849;48.482;2.332;2023-07-24T02:41:51;22.54;62.65
68842;SHT35;55849;48.482;2.332;2023-07-24T02:44:52;22.54;62.71
68842;SHT35;55849;48.482;2.332;2023-07-24T02:47:54;22.53;63.95
68842;SHT35;55849;48.482;2.332;2023-07-24T02:50:55;22.50;66.78
68842;SHT35;55849;48.482;2.332;2023-07-24T02:53:57;22.43;65.73
68842;SHT35;55849;48.482;2.332;2023-07-24T02:57:00;22.36;67.86
68842;SHT35;55849;48.482;2.332;2023-07-24T03:00:03;22.32;68.13
68842;SHT35;55849;48.482;2.332;2023-07-24T03:03:05;22.26;69.51
68842;SHT35;55849;48.482;2.332;2023-07-24T03:06:07;22.20;69.19
68842;SHT35;55849;48.482;2.332;2023-07-24T03:09:08;22.20;71.05
68842;SHT35;55849;48.482;2.332;2023-07-24T03:12:11;22.12;69.55
68842;SHT35;55849;48.482;2.332;2023-07-24T03:15:13;22.05;70.91
68842;SHT35;55849;48.482;2.332;2023-07-24T03:18:14;21.98;72.13
68842;SHT35;55849;48.482;2.332;2023-07-24T03:21:16;21.95;72.82
68842;SHT35;55849;48.482;2.332;2023-07-24T03:24:18;21.92;72.34
68842;SHT35;55849;48.482;2.332;2023-07-24T03:27:21;21.91;72.54
68842;SHT35;55849;48.482;2.332;2023-07-24T03:30:22;21.86;71.11
68842;SHT35;55849;48.482;2.332;2023-07-24T03:33:24;21.84;73.29
68842;SHT35;55849;48.482;2.332;2023-07-24T03:36:25;21.82;74.21
68842;SHT35;55849;48.482;2.332;2023-07-24T03:39:27;21.79;73.88
68842;SHT35;55849;48.482;2.332;2023-07-24T03:42:30;21.82;74.05
68842;SHT35;55849;48.482;2.332;2023-07-24T03:45:32;21.81;74.81
68842;SHT35;55849;48.482;2.332;2023-07-24T03:48:34;21.78;73.00
68842;SHT35;55849;48.482;2.332;2023-07-24T03:51:36;21.77;74.30
68842;SHT35;55849;48.482;2.332;2023-07-24T03:54:38;21.74;74.26
68842;SHT35;55849;48.482;2.332;2023-07-24T03:57:41;21.71;75.65
68842;SHT35;55849;48.482;2.332;2023-07-24T04:00:42;21.74;74.92
68842;SHT35;55849;48.482;2.332;2023-07-24T04:03:45;21.74;75.48
68842;SHT35;55849;48.482;2.332;2023-07-24T04:06:47;21.74;75.40
68842;SHT35;55849;48.482;2.332;2023-07-24T04:09:48;21.75;75.62
68842;SHT35;55849;48.482;2.332;2023-07-24T04:12:51;21.73;74.90
68842;SHT35;55849;48.482;2.332;2023-07-24T04:15:53;21.67;75.12
68842;SHT35;55849;48.482;2.332;2023-07-24T04:18:55;21.65;75.47
68842;SHT35;55849;48.482;2.332;2023-07-24T04:21:56;21.67;75.58
68842;SHT35;55849;48.482;2.332;2023-07-24T04:24:58;21.67;76.23
68842;SHT35;55849;48.482;2.332;2023-07-24T04:28:01;21.65;75.51
68842;SHT35;55849;48.482;2.332;2023-07-24T04:31:02;21.65;76.41
68842;SHT35;55849;48.482;2.332;2023-07-24T04:34:04;21.67;75.76
68842;SHT35;55849;48.482;2.332;2023-07-24T04:37:06;21.67;74.95
68842;SHT35;55849;48.482;2.332;2023-07-24T04:40:08;21.64;75.77
68842;SHT35;55849;48.482;2.332;2023-07-24T04:43:12;21.65;76.04
68842;SHT35;55849;48.482;2.332;2023-07-24T04:46:13;21.65;76.44
68842;SHT35;55849;48.482;2.332;2023-07-24T04:49:15;21.64;75.24
68842;SHT35;55849;48.482;2.332;2023-07-24T04:52:16;21.62;76.34
68842;SHT35;55849;48.482;2.332;2023-07-24T04:55:18;21.64;76.65
68842;SHT35;55849;48.482;2.332;2023-07-24T04:58:22;21.62;74.18
68842;SHT35;55849;48.482;2.332;2023-07-24T05:01:24;21.60;75.77
68842;SHT35;55849;48.482;2.332;2023-07-24T05:04:26;21.58;76.31
68842;SHT35;55849;48.482;2.332;2023-07-24T05:07:27;21.55;74.51
68842;SHT35;55849;48.482;2.332;2023-07-24T05:10:29;21.49;75.15
68842;SHT35;55849;48.482;2.332;2023-07-24T05:13:32;21.46;75.83
68842;SHT35;55849;48.482;2.332;2023-07-24T05:16:33;21.49;76.83
68842;SHT35;55849;48.482;2.332;2023-07-24T05:19:35;21.51;76.30
68842;SHT35;55849;48.482;2.332;2023-07-24T05:22:36;21.51;76.98
68842;SHT35;55849;48.482;2.332;2023-07-24T05:25:38;21.51;76.56
68842;SHT35;55849;48.482;2.332;2023-07-24T05:28:41;21.51;77.28
68842;SHT35;55849;48.482;2.332;2023-07-24T05:31:43;21.53;76.40
68842;SHT35;55849;48.482;2.332;2023-07-24T05:34:44;21.53;76.36
68842;SHT35;55849;48.482;2.332;2023-07-24T05:37:47;21.51;76.45
68842;SHT35;55849;48.482;2.332;2023-07-24T05:40:54;21.51;76.84
68842;SHT35;55849;48.482;2.332;2023-07-24T05:43:57;21.53;76.65
68842;SHT35;55849;48.482;2.332;2023-07-24T05:46:59;21.50;76.62
68842;SHT35;55849;48.482;2.332;2023-07-24T05:50:00;21.51;76.74
68842;SHT35;55849;48.482;2.332;2023-07-24T05:53:02;21.50;75.31
68842;SHT35;55849;48.482;2.332;2023-07-24T05:56:03;21.47;76.81
68842;SHT35;55849;48.482;2.332;2023-07-24T05:59:06;21.49;76.99
68842;SHT35;55849;48.482;2.332;2023-07-24T06:02:08;21.50;75.61
68842;SHT35;55849;48.482;2.332;2023-07-24T06:05:10;21.50;76.11
68842;SHT35;55849;48.482;2.332;2023-07-24T06:08:11;21.50;77.70
68842;SHT35;55849;48.482;2.332;2023-07-24T06:11:13;21.47;77.26
68842;SHT35;55849;48.482;2.332;2023-07-24T06:14:16;21.49;76.97
68842;SHT35;55849;48.482;2.332;2023-07-24T06:17:18;21.50;76.72
68842;SHT35;55849;48.482;2.332;2023-07-24T06:20:19;21.53;77.85
68842;SHT35;55849;48.482;2.332;2023-07-24T06:23:21;21.51;77.41
68842;SHT35;55849;48.482;2.332;2023-07-24T06:26:22;21.53;76.89
68842;SHT35;55849;48.482;2.332;2023-07-24T06:29:25;21.51;77.58
68842;SHT35;55849;48.482;2.332;2023-07-24T06:32:27;21.47;77.25
68842;SHT35;55849;48.482;2.332;2023-07-24T06:35:29;21.49;77.16
68842;SHT35;55849;48.482;2.332;2023-07-24T06:38:31;21.49;77.27
68842;SHT35;55849;48.482;2.332;2023-07-24T06:41:32;21.50;76.64
68842;SHT35;55849;48.482;2.332;2023-07-24T06:44:35;21.50;77.69
68842;SHT35;55849;48.482;2.332;2023-07-24T06:47:37;21.51;76.92
68842;SHT35;55849;48.482;2.332;2023-07-24T06:50:38;21.51;77.26
68842;SHT35;55849;48.482;2.332;2023-07-24T06:53:40;21.54;76.66
68842;SHT35;55849;48.482;2.332;2023-07-24T06:56:42;21.53;74.83
68842;SHT35;55849;48.482;2.332;2023-07-24T06:59:45;21.53;75.92
68842;SHT35;55849;48.482;2.332;2023-07-24T07:02:46;21.51;75.41
68842;SHT35;55849;48.482;2.332;2023-07-24T07:05:48;21.51;75.90
68842;SHT35;55849;48.482;2.332;2023-07-24T07:08:49;21.54;76.74
68842;SHT35;55849;48.482;2.332;2023-07-24T07:11:51;21.55;75.38
68842;SHT35;55849;48.482;2.332;2023-07-24T07:14:54;21.57;75.63
68842;SHT35;55849;48.482;2.332;2023-07-24T07:17:55;21.58;75.78
68842;SHT35;55849;48.482;2.332;2023-07-24T07:20:57;21.58;75.52
68842;SHT35;55849;48.482;2.332;2023-07-24T07:23:58;21.58;76.11
68842;SHT35;55849;48.482;2.332;2023-07-24T07:27:00;21.58;74.80
68842;SHT35;55849;48.482;2.332;2023-07-24T07:30:04;21.54;75.18
68842;SHT35;55849;48.482;2.332;2023-07-24T07:33:06;21.60;76.13
68842;SHT35;55849;48.482;2.332;2023-07-24T07:36:08;21.57;75.37
68842;SHT35;55849;48.482;2.332;2023-07-24T07:39:09;21.58;75.12
68842;SHT35;55849;48.482;2.332;2023-07-24T07:42:11;21.55;75.39
68842;SHT35;55849;48.482;2.332;2023-07-24T07:45:14;21.53;74.43
68842;SHT35;55849;48.482;2.332;2023-07-24T07:48:16;21.51;74.41
68842;SHT35;55849;48.482;2.332;2023-07-24T07:51:17;21.47;74.26
68842;SHT35;55849;48.482;2.332;2023-07-24T07:54:19;21.44;73.28
68842;SHT35;55849;48.482;2.332;2023-07-24T07:57:20;21.44;72.59
68842;SHT35;55849;48.482;2.332;2023-07-24T08:00:23;21.41;73.18
68842;SHT35;55849;48.482;2.332;2023-07-24T08:03:25;21.37;72.72
68842;SHT35;55849;48.482;2.332;2023-07-24T08:06:26;21.33;72.19
68842;SHT35;55849;48.482;2.332;2023-07-24T08:09:28;21.34;71.66
68842;SHT35;55849;48.482;2.332;2023-07-24T08:12:30;21.34;72.69
68842;SHT35;55849;48.482;2.332;2023-07-24T08:15:35;21.34;72.77
68842;SHT35;55849;48.482;2.332;2023-07-24T08:18:36;21.34;72.17
68842;SHT35;55849;48.482;2.332;2023-07-24T08:21:38;21.33;72.80
68842;SHT35;55849;48.482;2.332;2023-07-24T08:24:40;21.34;71.44
68842;SHT35;55849;48.482;2.332;2023-07-24T08:27:43;21.39;71.60
68842;SHT35;55849;48.482;2.332;2023-07-24T08:30:46;21.43;71.87
68842;SHT35;55849;48.482;2.332;2023-07-24T08:33:48;21.43;71.29
68842;SHT35;55849;48.482;2.332;2023-07-24T08:36:49;21.44;71.13
68842;SHT35;55849;48.482;2.332;2023-07-24T08:39:51;21.46;70.85
68842;SHT35;55849;48.482;2.332;2023-07-24T08:42:53;21.49;69.69
68842;SHT35;55849;48.482;2.332;2023-07-24T08:45:57;21.49;70.50
68842;SHT35;55849;48.482;2.332;2023-07-24T08:49:00;21.50;69.88
68842;SHT35;55849;48.482;2.332;2023-07-24T08:52:02;21.53;70.49
68842;SHT35;55849;48.482;2.332;2023-07-24T08:55:05;21.53;69.96
68842;SHT35;55849;48.482;2.332;2023-07-24T08:58:07;21.53;68.56
68842;SHT35;55849;48.482;2.332;2023-07-24T09:01:10;21.55;68.84
68842;SHT35;55849;48.482;2.332;2023-07-24T09:04:12;21.61;69.22
68842;SHT35;55849;48.482;2.332;2023-07-24T09:07:14;21.62;67.16
68842;SHT35;55849;48.482;2.332;2023-07-24T09:10:15;21.57;66.80
68842;SHT35;55849;48.482;2.332;2023-07-24T09:13:17;21.61;66.77
68842;SHT35;55849;48.482;2.332;2023-07-24T09:16:24;21.62;67.74
68842;SHT35;55849;48.482;2.332;2023-07-24T09:19:26;21.65;65.96
68842;SHT35;55849;48.482;2.332;2023-07-24T09:22:27;21.67;67.61
68842;SHT35;55849;48.482;2.332;2023-07-24T09:25:29;21.68;67.55
68842;SHT35;55849;48.482;2.332;2023-07-24T09:28:32;21.69;65.86
68842;SHT35;55849;48.482;2.332;2023-07-24T09:31:36;21.73;65.96
68842;SHT35;55849;48.482;2.332;2023-07-24T09:34:41;21.75;66.12
68842;SHT35;55849;48.482;2.332;2023-07-24T09:37:44;21.78;66.69
68842;SHT35;55849;48.482;2.332;2023-07-24T09:40:45;21.82;66.05
68842;SHT35;55849;48.482;2.332;2023-07-24T09:43:47;21.84;66.39
68842;SHT35;55849;48.482;2.332;2023-07-24T09:46:50;21.88;66.74
68842;SHT35;55849;48.482;2.332;2023-07-24T09:49:52;21.92;65.07
68842;SHT35;55849;48.482;2.332;2023-07-24T09:52:55;21.96;64.86
68842;SHT35;55849;48.482;2.332;2023-07-24T09:55:58;22.01;64.96
68842;SHT35;55849;48.482;2.332;2023-07-24T09:59:02;22.02;65.69
68842;SHT35;55849;48.482;2.332;2023-07-24T10:02:08;22.05;64.78
68842;SHT35;55849;48.482;2.332;2023-07-24T10:05:12;22.10;64.79
68842;SHT35;55849;48.482;2.332;2023-07-24T10:08:14;22.16;64.51
68842;SHT35;55849;48.482;2.332;2023-07-24T10:11:17;22.20;63.58
68842;SHT35;55849;48.482;2.332;2023-07-24T10:14:19;22.23;63.12
68842;SHT35;55849;48.482;2.332;2023-07-24T10:17:40;22.34;63.67
68842;SHT35;55849;48.482;2.332;2023-07-24T10:20:42;22.40;63.64
68842;SHT35;55849;48.482;2.332;2023-07-24T10:23:44;22.47;63.04
68842;SHT35;55849;48.482;2.332;2023-07-24T10:26:46;22.53;62.68
68842;SHT35;55849;48.482;2.332;2023-07-24T10:29:58;22.55;62.82
68842;SHT35;55849;48.482;2.332;2023-07-24T10:33:05;22.60;63.31
68842;SHT35;55849;48.482;2.332;2023-07-24T10:36:08;22.62;61.53
68842;SHT35;55849;48.482;2.332;2023-07-24T10:39:14;22.65;62.14
68842;SHT35;55849;48.482;2.332;2023-07-24T10:42:22;22.69;60.58
68842;SHT35;55849;48.482;2.332;2023-07-24T10:45:24;22.73;60.98
68842;SHT35;55849;48.482;2.332;2023-07-24T10:48:27;22.78;60.44
68842;SHT35;55849;48.482;2.332;2023-07-24T10:51:29;22.81;60.40
68842;SHT35;55849;48.482;2.332;2023-07-24T10:54:33;22.86;60.22
68842;SHT35;55849;48.482;2.332;2023-07-24T10:57:35;22.89;60.31
68842;SHT35;55849;48.482;2.332;2023-07-24T11:00:38;22.98;60.71
68842;SHT35;55849;48.482;2.332;2023-07-24T11:03:42;22.99;60.01
68842;SHT35;55849;48.482;2.332;2023-07-24T11:06:44;23.05;59.78
68842;SHT35;55849;48.482;2.332;2023-07-24T11:09:46;23.12;59.03
68842;SHT35;55849;48.482;2.332;2023-07-24T11:12:48;23.14;58.47
68842;SHT35;55849;48.482;2.332;2023-07-24T11:15:51;23.19;58.99
68842;SHT35;55849;48.482;2.332;2023-07-24T11:18:54;23.23;58.44
68842;SHT35;55849;48.482;2.332;2023-07-24T11:21:56;23.27;59.29
68842;SHT35;55849;48.482;2.332;2023-07-24T11:24:58;23.33;58.05
68842;SHT35;55849;48.482;2.332;2023-07-24T11:28:01;23.41;58.79
68842;SHT35;55849;48.482;2.332;2023-07-24T11:31:04;23.47;57.46
68842;SHT35;55849;48.482;2.332;2023-07-24T11:34:07;23.53;58.03
68842;SHT35;55849;48.482;2.332;2023-07-24T11:37:09;23.54;57.38
68842;SHT35;55849;48.482;2.332;2023-07-24T11:40:11;23.65;57.95
68842;SHT35;55849;48.482;2.332;2023-07-24T11:43:16;23.71;56.96
68842;SHT35;55849;48.482;2.332;2023-07-24T11:46:25;23.73;56.33
68842;SHT35;55849;48.482;2.332;2023-07-24T11:49:28;23.76;56.82
68842;SHT35;55849;48.482;2.332;2023-07-24T11:52:38;23.78;56.31
68842;SHT35;55849;48.482;2.332;2023-07-24T11:55:40;23.82;56.74
68842;SHT35;55849;48.482;2.332;2023-07-24T11:58:41;23.92;55.02
68842;SHT35;55849;48.482;2.332;2023-07-24T12:01:45;24.02;54.92
68842;SHT35;55849;48.482;2.332;2023-07-24T12:04:54;24.10;54.39
68842;SHT35;55849;48.482;2.332;2023-07-24T12:07:56;24.18;53.72
68842;SHT35;55849;48.482;2.332;2023-07-24T12:10:59;24.21;54.11
68842;SHT35;55849;48.482;2.332;2023-07-24T12:14:00;24.28;53.33
68842;SHT35;55849;48.482;2.332;2023-07-24T12:17:02;24.30;52.93
68842;SHT35;55849;48.482;2.332;2023-07-24T12:20:11;24.35;53.21
68842;SHT35;55849;48.482;2.332;2023-07-24T12:23:13;24.42;53.57
68842;SHT35;55849;48.482;2.332;2023-07-24T12:26:14;24.48;53.07
68842;SHT35;55849;48.482;2.332;2023-07-24T12:29:16;24.52;52.82
68842;SHT35;55849;48.482;2.332;2023-07-24T12:32:17;24.55;52.29
68842;SHT35;55849;48.482;2.332;2023-07-24T12:35:20;24.59;52.87
68842;SHT35;55849;48.482;2.332;2023-07-24T12:38:22;24.59;52.53
68842;SHT35;55849;48.482;2.332;2023-07-24T12:41:23;24.61;52.51
68842;SHT35;55849;48.482;2.332;2023-07-24T12:44:25;24.65;53.17
68842;SHT35;55849;48.482;2.332;2023-07-24T12:47:27;24.66;53.58
68842;SHT35;55849;48.482;2.332;2023-07-24T12:50:30;24.68;52.99
68842;SHT35;55849;48.482;2.332;2023-07-24T12:53:31;24.72;52.73
68842;SHT35;55849;48.482;2.332;2023-07-24T12:56:33;24.73;53.06
68842;SHT35;55849;48.482;2.332;2023-07-24T12:59:35;24.77;53.13
68842;SHT35;55849;48.482;2.332;2023-07-24T13:02:36;24.83;52.96
68842;SHT35;55849;48.482;2.332;2023-07-24T13:05:39;24.86;53.28
68842;SHT35;55849;48.482;2.332;2023-07-24T13:08:41;24.89;52.60
68842;SHT35;55849;48.482;2.332;2023-07-24T13:11:42;24.89;52.11
68842;SHT35;55849;48.482;2.332;2023-07-24T13:14:44;24.85;53.00
68842;SHT35;55849;48.482;2.332;2023-07-24T13:17:46;24.82;52.61
68842;SHT35;55849;48.482;2.332;2023-07-24T13:20:50;24.82;52.51
68842;SHT35;55849;48.482;2.332;2023-07-24T13:23:52;24.80;52.61
68842;SHT35;55849;48.482;2.332;2023-07-24T13:26:54;24.79;53.05
68842;SHT35;55849;48.482;2.332;2023-07-24T13:29:55;24.80;55.16
68842;SHT35;55849;48.482;2.332;2023-07-24T13:32:57;24.72;56.94
68842;SHT35;55849;48.482;2.332;2023-07-24T13:36:00;24.62;57.26
68842;SHT35;55849;48.482;2.332;2023-07-24T13:39:02;24.52;58.20
68842;SHT35;55849;48.482;2.332;2023-07-24T13:42:04;24.44;58.08
68842;SHT35;55849;48.482;2.332;2023-07-24T13:45:06;24.42;59.19
68842;SHT35;55849;48.482;2.332;2023-07-24T13:48:08;24.49;58.39
68842;SHT35;55849;48.482;2.332;2023-07-24T13:51:11;24.64;58.61
68842;SHT35;55849;48.482;2.332;2023-07-24T13:54:13;24.83;57.91
68842;SHT35;55849;48.482;2.332;2023-07-24T13:57:14;24.99;57.80
68842;SHT35;55849;48.482;2.332;2023-07-24T14:00:17;25.26;57.46
68842;SHT35;55849;48.482;2.332;2023-07-24T14:03:18;25.57;55.84
68842;SHT35;55849;48.482;2.332;2023-07-24T14:06:21;25.79;54.56
68842;SHT35;55849;48.482;2.332;2023-07-24T14:09:23;25.92;53.94
68842;SHT35;55849;48.482;2.332;2023-07-24T14:12:24;26.04;54.08
68842;SHT35;55849;48.482;2.332;2023-07-24T14:15:26;26.17;54.32
68842;SHT35;55849;48.482;2.332;2023-07-24T14:18:28;26.27;54.67
68842;SHT35;55849;48.482;2.332;2023-07-24T14:21:31;26.49;53.69
68842;SHT35;55849;48.482;2.332;2023-07-24T14:24:32;26.78;52.21
68842;SHT35;55849;48.482;2.332;2023-07-24T14:27:34;27.00;51.28
68842;SHT35;55849;48.482;2.332;2023-07-24T14:30:35;27.21;50.84
68842;SHT35;55849;48.482;2.332;2023-07-24T14:33:37;27.28;50.55
68842;SHT35;55849;48.482;2.332;2023-07-24T14:36:40;27.28;50.92
68842;SHT35;55849;48.482;2.332;2023-07-24T14:39:42;27.28;51.49
68842;SHT35;55849;48.482;2.332;2023-07-24T14:42:44;27.35;50.85
68842;SHT35;55849;48.482;2.332;2023-07-24T14:45:46;27.41;50.64
68842;SHT35;55849;48.482;2.332;2023-07-24T14:48:48;27.46;51.19
68842;SHT35;55849;48.482;2.332;2023-07-24T14:51:51;27.57;50.65
68842;SHT35;55849;48.482;2.332;2023-07-24T14:54:53;27.79;49.83
68842;SHT35;55849;48.482;2.332;2023-07-24T14:57:55;27.83;49.82
68842;SHT35;55849;48.482;2.332;2023-07-24T15:00:56;27.79;49.94
68842;SHT35;55849;48.482;2.332;2023-07-24T15:03:58;27.80;49.52
68842;SHT35;55849;48.482;2.332;2023-07-24T15:07:01;27.74;50.04
68842;SHT35;55849;48.482;2.332;2023-07-24T15:10:03;27.70;49.94
68842;SHT35;55849;48.482;2.332;2023-07-24T15:13:05;27.89;50.37
68842;SHT35;55849;48.482;2.332;2023-07-24T15:16:06;28.12;49.31
68842;SHT35;55849;48.482;2.332;2023-07-24T15:19:08;28.43;49.16
68842;SHT35;55849;48.482;2.332;2023-07-24T15:22:11;28.76;47.72
68842;SHT35;55849;48.482;2.332;2023-07-24T15:25:13;29.05;47.21
68842;SHT35;55849;48.482;2.332;2023-07-24T15:28:15;29.21;46.82
68842;SHT35;55849;48.482;2.332;2023-07-24T15:31:16;29.39;45.77
68842;SHT35;55849;48.482;2.332;2023-07-24T15:34:18;29.49;44.88
68842;SHT35;55849;48.482;2.332;2023-07-24T15:37:21;29.43;44.27
68842;SHT35;55849;48.482;2.332;2023-07-24T15:40:22;29.29;44.86
68842;SHT35;55849;48.482;2.332;2023-07-24T15:43:24;29.21;44.63
68842;SHT35;55849;48.482;2.332;2023-07-24T15:46:26;29.11;44.49
68842;SHT35;55849;48.482;2.332;2023-07-24T15:49:29;28.95;44.73
68842;SHT35;55849;48.482;2.332;2023-07-24T15:52:32;28.81;45.14
68842;SHT35;55849;48.482;2.332;2023-07-24T15:55:33;28.73;45.13
68842;SHT35;55849;48.482;2.332;2023-07-24T15:58:35;28.60;45.21
68842;SHT35;55849;48.482;2.332;2023-07-24T16:01:37;28.46;44.97
68842;SHT35;55849;48.482;2.332;2023-07-24T16:04:39;28.31;45.48
68842;SHT35;55849;48.482;2.332;2023-07-24T16:07:42;28.19;46.10
68842;SHT35;55849;48.482;2.332;2023-07-24T16:10:43;28.05;45.85
68842;SHT35;55849;48.482;2.332;2023-07-24T16:13:45;27.89;46.34
68842;SHT35;55849;48.482;2.332;2023-07-24T16:16:46;27.77;46.72
68842;SHT35;55849;48.482;2.332;2023-07-24T16:19:48;27.66;46.65
68842;SHT35;55849;48.482;2.332;2023-07-24T16:22:51;27.53;46.84
68842;SHT35;55849;48.482;2.332;2023-07-24T16:25:53;27.41;47.06
68842;SHT35;55849;48.482;2.332;2023-07-24T16:28:56;27.30;47.58
68842;SHT35;55849;48.482;2.332;2023-07-24T16:31:58;27.16;49.55
68842;SHT35;55849;48.482;2.332;2023-07-24T16:34:59;27.05;50.68
68842;SHT35;55849;48.482;2.332;2023-07-24T16:38:02;27.00;54.11
68842;SHT35;55849;48.482;2.332;2023-07-24T16:41:04;26.89;52.41
68842;SHT35;55849;48.482;2.332;2023-07-24T16:44:06;26.80;53.85
68842;SHT35;55849;48.482;2.332;2023-07-24T16:47:09;26.72;53.12
68842;SHT35;55849;48.482;2.332;2023-07-24T16:50:12;26.69;53.37
68842;SHT35;55849;48.482;2.332;2023-07-24T16:53:15;26.63;53.13
68842;SHT35;55849;48.482;2.332;2023-07-24T16:56:16;26.59;52.60
68842;SHT35;55849;48.482;2.332;2023-07-24T16:59:18;26.63;53.23
68842;SHT35;55849;48.482;2.332;2023-07-24T17:02:21;26.78;53.55
68842;SHT35;55849;48.482;2.332;2023-07-24T17:05:23;26.97;51.85
68842;SHT35;55849;48.482;2.332;2023-07-24T17:08:26;27.08;51.15
68842;SHT35;55849;48.482;2.332;2023-07-24T17:11:27;27.14;50.94
68842;SHT35;55849;48.482;2.332;2023-07-24T17:14:29;27.15;50.54
68842;SHT35;55849;48.482;2.332;2023-07-24T17:17:30;27.14;50.37
68842;SHT35;55849;48.482;2.332;2023-07-24T17:20:32;27.07;50.00
68842;SHT35;55849;48.482;2.332;2023-07-24T17:23:35;27.01;50.15
68842;SHT35;55849;48.482;2.332;2023-07-24T17:26:37;26.93;50.21
68842;SHT35;55849;48.482;2.332;2023-07-24T17:29:38;26.89;50.10
68842;SHT35;55849;48.482;2.332;2023-07-24T17:32:40;26.80;50.29
68842;SHT35;55849;48.482;2.332;2023-07-24T17:35:42;26.73;50.08
68842;SHT35;55849;48.482;2.332;2023-07-24T17:38:45;26.68;49.84
68842;SHT35;55849;48.482;2.332;2023-07-24T17:41:46;26.60;50.73
68842;SHT35;55849;48.482;2.332;2023-07-24T17:44:48;26.53;50.01
68842;SHT35;55849;48.482;2.332;2023-07-24T17:47:49;26.46;50.38
68842;SHT35;55849;48.482;2.332;2023-07-24T17:50:51;26.44;50.70
68842;SHT35;55849;48.482;2.332;2023-07-24T17:53:54;26.38;51.13
68842;SHT35;55849;48.482;2.332;2023-07-24T17:56:57;26.35;50.82
68842;SHT35;55849;48.482;2.332;2023-07-24T17:59:58;26.27;51.47
68842;SHT35;55849;48.482;2.332;2023-07-24T18:03:00;26.27;51.86
68842;SHT35;55849;48.482;2.332;2023-07-24T18:06:02;26.24;52.18
68842;SHT35;55849;48.482;2.332;2023-07-24T18:09:05;26.20;52.57
68842;SHT35;55849;48.482;2.332;2023-07-24T18:12:07;26.16;52.47
68842;SHT35;55849;48.482;2.332;2023-07-24T18:15:09;26.13;52.81
68842;SHT35;55849;48.482;2.332;2023-07-24T18:18:11;26.07;53.03
68842;SHT35;55849;48.482;2.332;2023-07-24T18:21:13;26.04;53.13
68842;SHT35;55849;48.482;2.332;2023-07-24T18:24:16;25.97;53.31
68842;SHT35;55849;48.482;2.332;2023-07-24T18:27:20;25.94;53.45
68842;SHT35;55849;48.482;2.332;2023-07-24T18:30:22;25.89;53.61
68842;SHT35;55849;48.482;2.332;2023-07-24T18:33:28;25.83;53.68
68842;SHT35;55849;48.482;2.332;2023-07-24T18:36:30;25.80;53.95
68842;SHT35;55849;48.482;2.332;2023-07-24T18:39:33;25.73;53.71
68842;SHT35;55849;48.482;2.332;2023-07-24T18:42:35;25.66;54.02
68842;SHT35;55849;48.482;2.332;2023-07-24T18:45:37;25.66;54.16
68842;SHT35;55849;48.482;2.332;2023-07-24T18:48:38;25.63;54.27
68842;SHT35;55849;48.482;2.332;2023-07-24T18:51:40;25.59;54.36
68842;SHT35;55849;48.482;2.332;2023-07-24T18:54:43;25.53;54.54
68842;SHT35;55849;48.482;2.332;2023-07-24T18:57:44;25.49;55.12
68842;SHT35;55849;48.482;2.332;2023-07-24T19:00:46;25.45;55.35
68842;SHT35;55849;48.482;2.332;2023-07-24T19:03:48;25.42;56.95
68842;SHT35;55849;48.482;2.332;2023-07-24T19:06:50;25.38;58.72
68842;SHT35;55849;48.482;2.332;2023-07-24T19:09:53;25.35;59.89